createdAt,value
2019-04-30T07:05:48.630Z,3.43
2019-04-30T07:11:11.273Z,3.23
2019-04-30T07:16:13.727Z,3.13
2019-04-30T07:21:19.542Z,4.00
2019-04-30T07:26:24.679Z,4.43
2019-04-30T07:31:29.404Z,3.87
2019-04-30T07:36:45.834Z,3.43
2019-04-30T07:41:37.009Z,3.77
2019-04-30T07:46:41.177Z,2.87
2019-04-30T07:51:44.570Z,3.07
2019-04-30T07:56:50.469Z,4.03
2019-04-30T08:02:06.654Z,2.50
2019-04-30T08:06:59.554Z,2.90
2019-04-30T08:12:02.130Z,2.50
2019-04-30T08:17:04.703Z,3.00
2019-04-30T08:22:06.892Z,2.97
2019-04-30T08:27:09.759Z,2.90
2019-04-30T08:32:12.812Z,2.57
2019-04-30T08:37:19.616Z,2.83
2019-04-30T08:42:30.807Z,2.90
2019-04-30T08:47:24.793Z,3.07
2019-04-30T08:52:27.558Z,3.10
2019-04-30T08:57:29.810Z,3.50
2019-04-30T09:02:32.401Z,2.67
2019-04-30T09:07:35.001Z,2.67
2019-04-30T09:12:37.278Z,2.53
2019-04-30T09:17:40.066Z,2.70
2019-04-30T09:22:42.703Z,2.83
2019-04-30T09:27:45.194Z,2.90
2019-04-30T09:32:49.950Z,2.50
2019-04-30T09:37:58.924Z,2.50
2019-04-30T09:42:58.543Z,2.57
2019-04-30T09:48:01.559Z,2.57
2019-04-30T09:53:04.274Z,2.80
2019-04-30T09:58:16.191Z,2.50
2019-04-30T10:03:12.689Z,2.37
2019-04-30T10:08:15.868Z,2.20
2019-04-30T10:13:18.320Z,2.30
2019-04-30T10:18:21.454Z,2.60
2019-04-30T10:23:24.661Z,2.60
2019-04-30T10:28:28.311Z,2.50
2019-04-30T10:33:30.868Z,2.50
2019-04-30T10:38:33.206Z,2.37
2019-04-30T10:43:36.632Z,2.40
2019-04-30T10:48:38.855Z,2.80
2019-04-30T10:53:41.328Z,2.70
2019-04-30T10:58:43.767Z,3.30
2019-04-30T11:03:46.508Z,2.83
2019-04-30T11:08:49.514Z,2.93
2019-04-30T11:13:52.062Z,2.77
2019-04-30T11:18:55.078Z,3.10
2019-04-30T11:23:59.487Z,2.87
2019-04-30T11:29:02.327Z,3.57
2019-04-30T11:34:06.075Z,2.87
2019-04-30T11:39:14.536Z,3.00
2019-04-30T11:44:35.984Z,2.90
2019-04-30T11:49:21.843Z,3.17
2019-04-30T11:54:25.013Z,3.30
2019-04-30T11:59:29.783Z,2.87
2019-04-30T12:04:32.156Z,2.80
2019-04-30T12:09:54.430Z,2.87
2019-04-30T12:14:59.589Z,3.00
2019-04-30T12:20:01.670Z,3.00
2019-04-30T12:25:05.464Z,3.00
2019-04-30T12:30:09.465Z,3.07
2019-04-30T12:35:13.117Z,3.10
2019-04-30T12:40:26.646Z,3.13
2019-04-30T12:45:20.540Z,3.10
2019-04-30T12:50:39.575Z,2.90
2019-04-30T12:55:49.079Z,2.90
2019-04-30T13:00:51.716Z,2.87
2019-04-30T13:05:55.952Z,3.30
2019-04-30T13:10:59.527Z,3.87
2019-04-30T13:16:02.119Z,3.00
2019-04-30T13:21:04.768Z,2.77
2019-04-30T13:26:08.929Z,3.00
2019-04-30T13:31:11.388Z,2.70
2019-04-30T13:36:14.395Z,3.20
2019-04-30T13:41:36.813Z,2.87
2019-04-30T13:46:39.626Z,2.83
2019-04-30T13:51:42.994Z,2.93
2019-04-30T13:56:46.277Z,2.70
2019-04-30T14:01:48.993Z,2.97
2019-04-30T14:07:00.983Z,3.13
2019-04-30T14:12:03.795Z,2.83
2019-04-30T14:17:06.073Z,3.20
2019-04-30T14:22:09.063Z,3.20
2019-04-30T14:27:12.495Z,3.47
2019-04-30T14:32:15.220Z,3.20
2019-04-30T14:37:18.095Z,3.10
2019-04-30T14:42:22.006Z,3.03
2019-04-30T14:47:50.083Z,3.97
2019-04-30T14:53:01.466Z,3.70
2019-04-30T14:58:16.486Z,3.00
2019-04-30T15:03:20.019Z,3.77
2019-04-30T15:08:22.678Z,3.30
2019-04-30T15:13:25.485Z,3.00
2019-04-30T15:18:29.009Z,3.20
2019-04-30T15:23:58.781Z,2.90
2019-04-30T15:28:57.258Z,2.87
2019-04-30T15:34:13.099Z,2.83
2019-04-30T15:39:33.782Z,2.80
2019-04-30T15:44:40.181Z,3.10
2019-04-30T15:49:41.436Z,3.00
2019-04-30T15:54:44.417Z,2.90
2019-04-30T15:59:48.214Z,2.93
2019-04-30T16:05:08.756Z,2.70
2019-04-30T16:10:30.133Z,2.73
2019-04-30T16:15:32.495Z,2.93
2019-04-30T16:20:35.193Z,4.33
2019-04-30T16:25:39.036Z,2.70
2019-04-30T16:30:42.975Z,2.50
2019-04-30T16:35:45.338Z,2.70
2019-04-30T16:40:48.868Z,2.73
2019-04-30T16:45:51.646Z,2.70
2019-04-30T16:50:54.319Z,3.00
2019-04-30T16:55:58.621Z,3.10
2019-04-30T17:01:04.272Z,2.50
2019-04-30T17:06:13.139Z,2.30
2019-04-30T17:11:35.039Z,2.70
2019-04-30T17:16:39.142Z,2.60
2019-04-30T17:21:42.225Z,2.73
2019-04-30T17:26:45.126Z,2.70
2019-04-30T17:31:47.704Z,2.70
2019-04-30T17:36:51.186Z,2.57
2019-04-30T17:41:53.623Z,2.90
2019-04-30T17:46:55.775Z,2.67
2019-04-30T17:51:59.203Z,2.87
2019-04-30T17:57:02.058Z,2.93
2019-04-30T18:02:06.557Z,3.27
2019-04-30T18:07:10.103Z,3.40
2019-04-30T18:12:12.524Z,3.20
2019-04-30T18:17:15.196Z,3.50
2019-04-30T18:22:37.353Z,5.50
2019-04-30T18:27:49.621Z,3.67
2019-04-30T18:32:52.025Z,3.60
2019-04-30T18:37:54.883Z,5.03
2019-04-30T18:42:59.294Z,3.93
2019-04-30T18:48:01.854Z,3.60
2019-04-30T18:53:10.363Z,3.70
2019-04-30T18:58:12.868Z,3.67
2019-04-30T19:03:19.130Z,4.50
2019-04-30T19:08:35.381Z,4.60
2019-04-30T19:14:00.619Z,4.90
2019-04-30T19:19:09.739Z,5.30
2019-04-30T19:24:13.511Z,6.57
2019-04-30T19:29:15.931Z,6.80
2019-04-30T19:34:18.908Z,6.40
2019-04-30T19:39:21.064Z,6.00
2019-04-30T19:44:23.984Z,9.10
2019-04-30T19:49:26.875Z,8.03
2019-04-30T19:54:29.872Z,7.37
2019-04-30T19:59:32.885Z,8.27
2019-04-30T20:04:36.443Z,11.23
2019-04-30T20:09:39.215Z,10.03
2019-04-30T20:14:41.434Z,10.40
2019-04-30T20:19:44.152Z,10.40
2019-04-30T20:24:46.866Z,8.27
2019-04-30T20:29:51.709Z,7.80
2019-04-30T20:34:53.567Z,7.20
2019-04-30T20:40:03.633Z,6.80
2019-04-30T20:45:08.981Z,7.00
2019-04-30T20:50:12.723Z,6.70
2019-04-30T20:55:15.450Z,6.90
2019-04-30T21:00:18.012Z,8.33
2019-04-30T21:05:20.656Z,9.17
2019-04-30T21:10:22.853Z,8.20
2019-04-30T21:15:25.129Z,8.37
2019-04-30T21:20:28.853Z,6.77
2019-04-30T21:25:32.294Z,7.50
2019-04-30T21:30:35.320Z,7.50
2019-04-30T21:35:43.975Z,7.27
2019-04-30T21:40:46.931Z,7.60
2019-04-30T21:45:49.576Z,7.40
2019-04-30T21:50:51.972Z,7.83
2019-04-30T21:55:54.159Z,7.90
2019-04-30T22:01:22.635Z,8.90
2019-04-30T22:06:25.343Z,8.97
2019-04-30T22:11:29.663Z,8.53
2019-04-30T22:16:32.137Z,7.93
2019-04-30T22:21:34.590Z,8.73
2019-04-30T22:26:36.733Z,9.20
2019-04-30T22:31:39.720Z,8.63
2019-04-30T22:36:46.077Z,8.37
2019-04-30T22:41:48.511Z,7.87
2019-04-30T22:46:50.992Z,7.93
2019-04-30T22:51:53.263Z,7.57
2019-04-30T22:56:56.048Z,7.60
2019-04-30T23:02:20.403Z,7.50
2019-04-30T23:07:22.672Z,7.17
2019-04-30T23:12:25.149Z,7.37
2019-04-30T23:17:27.883Z,7.30
2019-04-30T23:22:30.722Z,6.93
2019-04-30T23:27:33.008Z,6.80
2019-04-30T23:32:35.731Z,7.37
2019-04-30T23:37:39.572Z,7.30
2019-04-30T23:42:42.086Z,7.23
2019-04-30T23:47:44.573Z,7.30
2019-04-30T23:52:46.946Z,7.93
2019-04-30T23:57:49.158Z,7.80
